Time;durP1;ratioP1;P1;durP2;ratioP2;P2;SDS_P1;SDS_P2;PMS_P1;PMS_P2;Temp;Humidity;BMP_temperature;BMP_pressure;BME280_temperature;BME280_humidity;BME280_pressure;Samples;Min_cycle;Max_cycle;Signal;HPM_P1;HPM_P2
2024/03/21 00:01:09;;;;;;;13.80;8.60;;;;;;;1.57;100.00;100787.11;105276;1254;72019;-54
2024/03/21 00:03:37;;;;;;;14.80;8.60;;;;;;;1.53;100.00;100785.71;105298;1260;65796;-55
2024/03/21 00:06:05;;;;;;;15.60;9.20;;;;;;;1.50;100.00;100787.16;105365;1255;72701;-55
2024/03/21 00:08:32;;;;;;;15.20;8.70;;;;;;;1.47;100.00;100788.71;105278;1260;60533;-54
2024/03/21 00:11:00;;;;;;;15.20;8.70;;;;;;;1.45;100.00;100792.64;105466;1260;60399;-53
2024/03/21 00:13:27;;;;;;;17.10;9.40;;;;;;;1.47;100.00;100790.95;105098;1254;72573;-55
2024/03/21 00:15:55;;;;;;;13.90;8.60;;;;;;;1.48;100.00;100789.55;105255;1260;65636;-55
2024/03/21 00:18:24;;;;;;;15.70;9.30;;;;;;;1.48;100.00;100793.81;108289;1258;71440;-54
2024/03/21 00:20:51;;;;;;;15.80;8.50;;;;;;;1.47;100.00;100794.05;105581;1260;60885;-53
2024/03/21 00:23:19;;;;;;;14.90;8.50;;;;;;;1.43;100.00;100793.60;105368;1254;60542;-54
2024/03/21 00:25:46;;;;;;;14.40;8.90;;;;;;;1.41;100.00;100797.52;105323;1260;73846;-55
2024/03/21 00:28:16;;;;;;;14.90;8.80;;;;;;;1.40;100.00;100801.05;105490;1261;66908;-53
2024/03/21 00:30:44;;;;;;;14.10;8.90;;;;;;;1.38;100.00;100798.65;105358;1258;71591;-54
2024/03/21 00:33:11;;;;;;;20.00;9.20;;;;;;;1.37;100.00;100801.28;105408;1263;60461;-54
2024/03/21 00:35:39;;;;;;;22.10;8.50;;;;;;;1.34;100.00;100797.67;105397;1256;60533;-53
2024/03/21 00:38:07;;;;;;;17.70;8.10;;;;;;;1.34;100.00;100802.37;105374;1254;72711;-54
2024/03/21 00:40:34;;;;;;;19.50;9.40;;;;;;;1.32;100.00;100798.40;105069;1263;65670;-53
2024/03/21 00:43:02;;;;;;;14.60;9.30;;;;;;;1.29;100.00;100798.42;105491;1260;71500;-53
2024/03/21 00:45:30;;;;;;;19.20;10.10;;;;;;;1.27;100.00;100797.23;105779;1254;60526;-53
2024/03/21 00:48:00;;;;;;;16.40;8.50;;;;;;;1.23;100.00;100796.63;105795;1251;60478;-54
2024/03/21 00:50:29;;;;;;;14.60;8.90;;;;;;;1.20;100.00;100798.85;105715;1256;71992;-54
2024/03/21 00:52:56;;;;;;;17.50;8.70;;;;;;;1.18;100.00;100797.31;105710;1256;67482;-54
2024/03/21 00:55:25;;;;;;;17.80;9.30;;;;;;;1.16;100.00;100801.40;105770;1257;71483;-53
2024/03/21 00:57:52;;;;;;;14.40;8.80;;;;;;;1.13;100.00;100807.45;105660;1251;60374;-53
2024/03/21 01:00:21;;;;;;;18.50;10.20;;;;;;;1.09;100.00;100811.30;105701;1256;60399;-53
2024/03/21 01:02:48;;;;;;;17.40;8.80;;;;;;;1.04;100.00;100811.83;105634;1256;73786;-53
2024/03/21 01:05:18;;;;;;;15.90;9.10;;;;;;;1.01;100.00;100811.23;105768;1257;66918;-53
2024/03/21 01:07:47;;;;;;;14.40;8.60;;;;;;;0.97;100.00;100813.84;105841;1251;72708;-53
2024/03/21 01:10:15;;;;;;;17.10;9.60;;;;;;;0.95;100.00;100815.74;105605;1251;60335;-53
2024/03/21 01:12:44;;;;;;;18.40;9.80;;;;;;;0.91;100.00;100814.31;105751;1252;60812;-54
2024/03/21 01:15:12;;;;;;;15.10;9.30;;;;;;;0.88;100.00;100817.90;105690;1254;72926;-53
2024/03/21 01:17:39;;;;;;;14.80;8.80;;;;;;;0.85;100.00;100817.76;105724;1257;65981;-53
2024/03/21 01:20:08;;;;;;;19.40;9.50;;;;;;;0.81;100.00;100818.55;105654;1250;72710;-53
2024/03/21 01:22:35;;;;;;;16.80;9.10;;;;;;;0.78;100.00;100819.17;105852;1257;60357;-54
2024/03/21 01:25:04;;;;;;;20.00;11.40;;;;;;;0.73;100.00;100817.40;105589;1252;60533;-54
2024/03/21 01:27:32;;;;;;;20.40;11.30;;;;;;;0.70;100.00;100818.13;105691;1256;73906;-54
2024/03/21 01:29:59;;;;;;;22.30;13.00;;;;;;;0.67;100.00;100820.21;105660;1256;66055;-54
2024/03/21 01:32:27;;;;;;;28.20;16.20;;;;;;;0.62;100.00;100823.49;105759;1250;71447;-55
2024/03/21 01:34:55;;;;;;;27.90;15.60;;;;;;;0.58;100.00;100821.66;105479;1256;61412;-53
2024/03/21 01:37:22;;;;;;;33.00;16.90;;;;;;;0.55;100.00;100823.46;105674;1250;60399;-55
2024/03/21 01:39:50;;;;;;;32.70;15.70;;;;;;;0.52;100.00;100821.45;105746;1251;72546;-55
2024/03/21 01:42:18;;;;;;;26.40;16.30;;;;;;;0.50;100.00;100824.29;105774;1257;66414;-53
2024/03/21 01:45:03;;;;;;;26.50;15.40;;;;;;;0.48;100.00;100823.70;105812;1252;72682;-53
2024/03/21 01:47:31;;;;;;;32.40;15.80;;;;;;;0.44;100.00;100826.02;105860;1255;60401;-55
2024/03/21 01:49:58;;;;;;;25.40;14.90;;;;;;;0.40;100.00;100828.56;105988;1251;60415;-55
2024/03/21 01:52:28;;;;;;;24.80;14.00;;;;;;;0.34;100.00;100830.51;105703;1256;73866;-54
2024/03/21 01:54:56;;;;;;;22.50;13.30;;;;;;;0.28;100.00;100829.71;105731;1256;67077;-54
2024/03/21 01:57:24;;;;;;;22.50;12.70;;;;;;;0.22;100.00;100831.31;105734;1253;71487;-54
2024/03/21 01:59:52;;;;;;;21.40;13.20;;;;;;;0.18;100.00;100832.77;106042;1254;60370;-55
2024/03/21 02:02:20;;;;;;;22.30;12.40;;;;;;;0.13;100.00;100832.41;105888;1256;60609;-54
2024/03/21 02:04:48;;;;;;;19.70;11.70;;;;;;;0.09;100.00;100833.70;105913;1251;72658;-55
2024/03/21 02:07:18;;;;;;;20.50;12.30;;;;;;;0.04;100.00;100835.77;105742;1256;64669;-54
2024/03/21 02:09:45;;;;;;;22.50;12.70;;;;;;;-0.01;100.00;100834.52;105772;1254;72795;-55
2024/03/21 02:12:13;;;;;;;17.40;10.40;;;;;;;-0.04;100.00;100836.92;105509;1257;60760;-54
2024/03/21 02:14:40;;;;;;;21.00;11.70;;;;;;;-0.06;100.00;100837.79;105664;1257;60418;-55
2024/03/21 02:17:08;;;;;;;18.60;11.90;;;;;;;-0.07;100.00;100841.07;105491;1260;73919;-55
2024/03/21 02:19:35;;;;;;;18.70;10.50;;;;;;;-0.07;100.00;100845.88;105703;1256;67093;-55
2024/03/21 02:24:53;;;;;;;23.60;12.40;;;;;;;-0.10;100.00;100850.52;105763;1251;60850;-54
2024/03/21 02:27:20;;;;;;;17.30;11.10;;;;;;;-0.11;100.00;100849.56;105666;1257;60440;-55
2024/03/21 02:29:48;;;;;;;18.30;11.40;;;;;;;-0.13;100.00;100852.20;105427;1256;73908;-55
2024/03/21 02:32:16;;;;;;;16.90;10.00;;;;;;;-0.14;100.00;100852.81;105622;1256;66911;-53
2024/03/21 02:34:45;;;;;;;20.90;13.00;;;;;;;-0.15;100.00;100856.15;105758;1253;71407;-53
2024/03/21 02:37:12;;;;;;;20.40;12.10;;;;;;;-0.19;100.00;100859.80;105926;1254;60869;-54
2024/03/21 02:39:41;;;;;;;18.70;11.90;;;;;;;-0.21;100.00;100862.17;105550;1257;60498;-53
2024/03/21 02:42:09;;;;;;;20.30;12.00;;;;;;;-0.23;100.00;100864.67;105795;1251;72651;-53
2024/03/21 02:44:36;;;;;;;16.60;11.10;;;;;;;-0.26;100.00;100866.19;105705;1252;66964;-53
2024/03/21 02:47:04;;;;;;;19.00;12.00;;;;;;;-0.23;100.00;100868.42;105956;1257;72723;-54
2024/03/21 02:49:32;;;;;;;20.20;11.80;;;;;;;-0.23;100.00;100872.18;105416;1254;60476;-53
2024/03/21 02:51:59;;;;;;;21.50;12.60;;;;;;;-0.26;100.00;100873.52;105700;1250;60475;-53
2024/03/21 02:54:29;;;;;;;21.60;12.60;;;;;;;-0.28;100.00;100875.38;105821;1257;74065;-53
2024/03/21 02:57:08;;;;;;;18.60;11.10;;;;;;;-0.31;100.00;100880.56;106013;1257;66924;-53
2024/03/21 02:59:36;;;;;;;23.60;12.60;;;;;;;-0.35;100.00;100877.72;105748;1255;72735;-53
2024/03/21 03:02:04;;;;;;;20.80;13.00;;;;;;;-0.40;100.00;100884.55;105737;1266;60461;-53
2024/03/21 03:04:32;;;;;;;25.00;12.80;;;;;;;-0.44;100.00;100886.17;105755;1252;60478;-52
2024/03/21 03:07:00;;;;;;;21.50;13.50;;;;;;;-0.48;100.00;100887.45;105849;1251;73903;-54
2024/03/21 03:09:27;;;;;;;22.90;14.70;;;;;;;-0.52;100.00;100893.30;105708;1251;65776;-53
2024/03/21 03:11:55;;;;;;;25.70;17.60;;;;;;;-0.52;100.00;100897.92;105516;1253;71735;-52
2024/03/21 03:14:22;;;;;;;24.90;17.80;;;;;;;-0.50;100.00;100903.25;105734;1259;60462;-53
2024/03/21 03:16:50;;;;;;;27.50;17.20;;;;;;;-0.47;100.00;100907.52;105772;1256;60757;-52
2024/03/21 03:19:18;;;;;;;34.40;18.30;;;;;;;-0.46;100.00;100913.59;105493;1256;74818;-53
2024/03/21 03:21:45;;;;;;;29.60;19.40;;;;;;;-0.46;100.00;100912.05;105698;1256;66991;-53
2024/03/21 03:24:13;;;;;;;32.40;18.00;;;;;;;-0.46;100.00;100915.46;105713;1255;71414;-53
2024/03/21 03:26:40;;;;;;;30.80;20.60;;;;;;;-0.46;100.00;100919.94;106632;1256;61342;-52
2024/03/21 03:29:08;;;;;;;29.80;19.70;;;;;;;-0.47;100.00;100922.73;105719;1256;61283;-54
2024/03/21 03:31:36;;;;;;;32.90;20.60;;;;;;;-0.48;100.00;100926.85;105735;1257;74723;-53
2024/03/21 03:36:50;;;;;;;32.10;21.40;;;;;;;-0.52;100.00;100929.52;105741;1257;71455;-54
2024/03/21 03:39:17;;;;;;;31.50;20.10;;;;;;;-0.57;100.00;100933.73;105695;1257;61319;-53
2024/03/21 03:41:45;;;;;;;31.60;20.00;;;;;;;-0.58;100.00;100935.38;105811;1256;61387;-53
2024/03/21 03:44:12;;;;;;;33.20;22.50;;;;;;;-0.61;100.00;100940.16;105830;1256;73816;-53
2024/03/21 03:46:41;;;;;;;32.60;21.00;;;;;;;-0.63;100.00;100941.50;105965;1257;66950;-54
2024/03/21 03:49:09;;;;;;;33.10;21.40;;;;;;;-0.65;100.00;100945.15;105775;1258;72689;-53
2024/03/21 03:51:36;;;;;;;34.80;21.80;;;;;;;-0.65;100.00;100952.48;105822;1251;61225;-53
2024/03/21 03:54:04;;;;;;;34.90;23.40;;;;;;;-0.65;100.00;100949.27;105784;1257;61327;-53
2024/03/21 03:56:31;;;;;;;39.10;24.60;;;;;;;-0.66;100.00;100951.73;105663;1251;73435;-52
2024/03/21 03:58:59;;;;;;;33.10;22.10;;;;;;;-0.67;100.00;100957.61;105712;1257;67001;-53
2024/03/21 04:01:26;;;;;;;33.00;22.90;;;;;;;-0.66;100.00;100961.81;105669;1257;71460;-54
2024/03/21 04:03:54;;;;;;;34.50;23.10;;;;;;;-0.64;100.00;100966.91;105526;1259;61599;-54
2024/03/21 04:06:22;;;;;;;33.90;22.00;;;;;;;-0.60;100.00;100965.67;105872;1257;59681;-54
2024/03/21 04:08:49;;;;;;;34.40;22.40;;;;;;;-0.58;100.00;100968.30;105932;1251;73434;-53
2024/03/21 04:11:18;;;;;;;37.10;24.30;;;;;;;-0.57;100.00;100966.52;105765;1257;65770;-55
2024/03/21 04:13:46;;;;;;;36.50;22.80;;;;;;;-0.57;100.00;100976.59;105909;1255;72669;-52
2024/03/21 04:16:17;;;;;;;33.40;22.80;;;;;;;-0.57;100.00;100976.08;105748;1257;61224;-52
2024/03/21 04:18:44;;;;;;;40.00;25.90;;;;;;;-0.57;100.00;100976.41;105867;1252;61282;-54
2024/03/21 04:21:12;;;;;;;40.70;25.60;;;;;;;-0.56;100.00;100973.63;105502;1252;74196;-52
2024/03/21 04:23:39;;;;;;;41.10;25.60;;;;;;;-0.54;100.00;100975.55;105670;1251;65826;-53
2024/03/21 04:26:07;;;;;;;40.20;27.00;;;;;;;-0.52;100.00;100980.22;105927;1266;72673;-52
2024/03/21 04:28:34;;;;;;;39.10;25.30;;;;;;;-0.51;100.00;100978.46;105705;1256;61491;-53
2024/03/21 04:31:02;;;;;;;38.70;24.80;;;;;;;-0.48;100.00;100986.14;105842;1257;61454;-54
2024/03/21 04:33:30;;;;;;;42.80;25.90;;;;;;;-0.45;100.00;100991.58;105735;1256;75269;-53
2024/03/21 04:35:57;;;;;;;39.50;25.50;;;;;;;-0.44;100.00;100992.55;105573;1256;65800;-52
2024/03/21 04:38:25;;;;;;;39.10;23.90;;;;;;;-0.44;100.00;100989.77;105739;1257;72778;-53
2024/03/21 04:41:12;;;;;;;39.80;24.10;;;;;;;-0.40;100.00;100989.23;105580;1255;61287;-55
2024/03/21 04:43:40;;;;;;;43.30;26.50;;;;;;;-0.38;100.00;100990.10;105764;1256;61355;-53
2024/03/21 04:46:08;;;;;;;39.90;25.70;;;;;;;-0.35;100.00;100991.61;105702;1256;74587;-53
2024/03/21 04:48:35;;;;;;;41.00;23.90;;;;;;;-0.30;100.00;100987.36;105901;1257;65833;-53
2024/03/21 04:51:03;;;;;;;36.80;23.60;;;;;;;-0.23;100.00;100989.03;105752;1252;73162;-53
2024/03/21 04:53:31;;;;;;;39.00;24.90;;;;;;;-0.21;100.00;100991.32;105701;1257;61324;-52
2024/03/21 04:56:03;;;;;;;39.40;23.10;;;;;;;-0.18;100.00;100989.73;105913;1257;61349;-52
2024/03/21 04:58:31;;;;;;;38.20;23.90;;;;;;;-0.14;100.00;100992.89;105896;1257;74819;-54
2024/03/21 05:00:58;;;;;;;39.60;23.30;;;;;;;-0.11;100.00;100992.21;105787;1257;66926;-53
2024/03/21 05:03:26;;;;;;;41.00;25.30;;;;;;;-0.08;100.00;100995.40;105551;1257;71681;-53
2024/03/21 05:05:54;;;;;;;43.90;25.00;;;;;;;-0.01;100.00;100997.39;105621;1256;61231;-52
2024/03/21 05:08:21;;;;;;;41.70;25.10;;;;;;;0.06;100.00;100997.44;105883;1256;61341;-54
2024/03/21 05:10:49;;;;;;;37.00;23.30;;;;;;;0.13;100.00;100997.13;105723;1257;73456;-53
2024/03/21 05:13:16;;;;;;;40.00;23.60;;;;;;;0.21;100.00;100998.73;105651;1254;67049;-53
2024/03/21 05:15:48;;;;;;;37.90;21.90;;;;;;;0.25;100.00;101000.68;105874;1257;72613;-54
2024/03/21 05:18:16;;;;;;;37.40;22.60;;;;;;;0.29;100.00;100997.55;105994;1257;61279;-55
2024/03/21 05:20:45;;;;;;;38.70;23.00;;;;;;;0.31;100.00;101000.66;105682;1256;61156;-54
2024/03/21 05:23:12;;;;;;;39.40;23.40;;;;;;;0.36;100.00;101002.00;105698;1257;73420;-54
2024/03/21 05:25:40;;;;;;;39.90;23.60;;;;;;;0.42;100.00;101005.73;105694;1251;65656;-54
2024/03/21 05:35:44;;;;;;;39.40;24.80;;;;;;;0.51;100.00;101005.11;102257;1294;600694;-53
2024/03/21 05:38:12;;;;;;;43.70;24.40;;;;;;;0.53;100.00;101009.65;104895;1267;59515;-54
2024/03/21 05:40:43;;;;;;;42.80;25.20;;;;;;;0.57;100.00;101006.63;104817;1265;61109;-53
2024/03/21 05:43:10;;;;;;;37.10;24.30;;;;;;;0.61;100.00;101013.54;104863;1264;70855;-54
2024/03/21 05:45:38;;;;;;;40.10;24.90;;;;;;;0.67;100.00;101008.36;105043;1267;65721;-54
2024/03/21 05:48:06;;;;;;;43.50;25.80;;;;;;;0.75;100.00;101013.15;104838;1264;71717;-53
2024/03/21 05:50:33;;;;;;;38.60;23.50;;;;;;;0.81;100.00;101014.45;104636;1264;196278;-53
2024/03/21 05:53:01;;;;;;;42.40;25.20;;;;;;;0.84;100.00;101012.58;104831;1268;59609;-55
2024/03/21 05:55:28;;;;;;;36.50;23.30;;;;;;;0.83;100.00;101018.81;104870;1263;71630;-55
2024/03/21 05:57:58;;;;;;;32.10;22.20;;;;;;;0.84;100.00;101016.66;105030;1268;66966;-55
2024/03/21 06:00:26;;;;;;;36.10;23.80;;;;;;;0.88;100.00;101015.04;105802;1257;72724;-54
2024/03/21 06:02:53;;;;;;;36.80;24.00;;;;;;;0.95;100.00;101025.88;105796;1254;61478;-53
2024/03/21 06:05:21;;;;;;;32.00;22.10;;;;;;;1.01;100.00;101028.88;105733;1256;62922;-53
2024/03/21 06:07:49;;;;;;;29.70;20.20;;;;;;;1.07;100.00;101023.19;105694;1257;76857;-53
2024/03/21 06:10:16;;;;;;;31.90;20.20;;;;;;;1.12;100.00;101026.79;105541;1256;68578;-53
2024/03/21 06:12:44;;;;;;;29.50;21.50;;;;;;;1.14;100.00;101026.31;105569;1254;73254;-53
2024/03/21 06:15:11;;;;;;;29.40;19.60;;;;;;;1.16;100.00;101026.65;105705;1253;61067;-53
2024/03/21 06:17:39;;;;;;;28.60;20.90;;;;;;;1.18;100.00;101025.88;105598;1257;59272;-55
2024/03/21 06:20:08;;;;;;;24.80;18.00;;;;;;;1.24;100.00;101017.11;105587;1253;72624;-54
2024/03/21 06:22:37;;;;;;;22.60;16.60;;;;;;;1.32;100.00;101023.05;105635;1253;66259;-53
2024/03/21 06:25:04;;;;;;;26.90;18.10;;;;;;;1.38;100.00;101021.27;105661;1253;72816;-53
2024/03/21 06:27:32;;;;;;;22.60;16.70;;;;;;;1.41;100.00;101021.56;105713;1257;60958;-54
2024/03/21 06:29:59;;;;;;;22.70;17.40;;;;;;;1.44;100.00;101017.06;105645;1252;60431;-54
2024/03/21 06:32:27;;;;;;;24.90;17.70;;;;;;;1.51;100.00;101019.81;105438;1256;73851;-55
2024/03/21 06:34:55;;;;;;;25.80;17.60;;;;;;;1.56;100.00;101017.92;105576;1254;67775;-53
2024/03/21 06:37:22;;;;;;;26.10;17.60;;;;;;;1.57;100.00;101017.55;105758;1253;74194;-54
2024/03/21 06:39:50;;;;;;;25.30;17.30;;;;;;;1.53;100.00;101015.25;105545;1257;60306;-54
2024/03/21 06:42:17;;;;;;;23.80;17.50;;;;;;;1.53;100.00;101012.88;105338;1254;60556;-54
2024/03/21 06:44:45;;;;;;;28.20;19.30;;;;;;;1.58;100.00;101014.92;105593;1253;73950;-54
2024/03/21 06:47:13;;;;;;;27.90;19.40;;;;;;;1.62;100.00;101015.13;105725;1253;66907;-54
2024/03/21 06:49:41;;;;;;;22.00;16.50;;;;;;;1.63;100.00;101015.05;105691;1253;73167;-54
2024/03/21 06:52:09;;;;;;;24.10;18.00;;;;;;;1.70;100.00;101015.74;105665;1254;61408;-55
2024/03/21 06:54:37;;;;;;;26.60;19.50;;;;;;;1.77;100.00;101015.15;105591;1257;62770;-54
2024/03/21 06:57:04;;;;;;;28.20;19.40;;;;;;;1.79;100.00;101012.44;105629;1253;72623;-54
2024/03/21 06:59:32;;;;;;;25.80;17.10;;;;;;;1.85;100.00;101008.56;105454;1253;66081;-54
2024/03/21 07:02:00;;;;;;;23.70;17.50;;;;;;;1.92;100.00;101010.10;105601;1254;73877;-54
2024/03/21 07:04:27;;;;;;;25.30;17.80;;;;;;;1.96;100.00;101007.41;105503;1258;60340;-55
2024/03/21 07:06:55;;;;;;;23.80;16.90;;;;;;;1.97;100.00;101006.17;105591;1257;61420;-54
2024/03/21 07:09:23;;;;;;;28.20;17.50;;;;;;;1.95;100.00;100998.77;105451;1253;72786;-54
2024/03/21 07:11:51;;;;;;;22.60;16.80;;;;;;;1.97;100.00;101003.23;105522;1253;67118;-55
2024/03/21 07:14:19;;;;;;;26.50;18.10;;;;;;;2.00;100.00;100999.25;105315;1254;74264;-54
2024/03/21 07:16:46;;;;;;;25.90;18.40;;;;;;;2.07;100.00;100999.98;105555;1258;61222;-54
2024/03/21 07:19:14;;;;;;;23.50;17.70;;;;;;;2.15;100.00;100999.88;105630;1256;64072;-54
2024/03/21 07:21:42;;;;;;;30.50;19.70;;;;;;;2.21;100.00;100996.90;105685;1254;75942;-55
2024/03/21 07:24:09;;;;;;;23.80;17.30;;;;;;;2.25;100.00;100994.42;105304;1253;68777;-54
2024/03/21 07:26:37;;;;;;;26.30;18.50;;;;;;;2.29;100.00;100997.05;105652;1253;73134;-54
2024/03/21 07:29:07;;;;;;;23.40;17.30;;;;;;;2.31;100.00;100987.29;105557;1253;61503;-55
2024/03/21 07:31:34;;;;;;;22.10;17.40;;;;;;;2.31;100.00;100988.65;105733;1257;60421;-55
2024/03/21 07:34:02;;;;;;;22.90;16.80;;;;;;;2.31;100.00;100988.27;105550;1253;74946;-55
2024/03/21 07:36:29;;;;;;;20.80;15.60;;;;;;;2.33;100.00;100977.50;105516;1254;68275;-54
2024/03/21 07:38:57;;;;;;;18.10;14.40;;;;;;;2.37;100.00;100980.79;105703;1253;75625;-54
2024/03/21 07:41:25;;;;;;;20.60;14.60;;;;;;;2.43;100.00;100981.61;105754;1258;60728;-55
2024/03/21 07:43:52;;;;;;;16.50;13.00;;;;;;;2.43;100.00;100981.40;105425;1256;61024;-55
2024/03/21 07:46:21;;;;;;;18.30;14.50;;;;;;;2.42;100.00;100974.43;105737;1253;75310;-54
2024/03/21 07:48:53;;;;;;;19.50;15.10;;;;;;;2.41;100.00;100976.19;105603;1257;69313;-55
2024/03/21 07:51:20;;;;;;;22.00;15.80;;;;;;;2.41;100.00;100971.40;105571;1253;73516;-54
2024/03/21 07:53:49;;;;;;;19.20;14.30;;;;;;;2.46;100.00;100970.23;105565;1257;63492;-55
2024/03/21 07:56:16;;;;;;;20.10;15.40;;;;;;;2.53;100.00;100973.10;105698;1253;61131;-55
2024/03/21 07:58:44;;;;;;;22.40;14.00;;;;;;;2.58;100.00;100970.48;105498;1257;75147;-55
2024/03/21 08:01:11;;;;;;;21.20;15.90;;;;;;;2.60;100.00;100967.42;105617;1253;70322;-55
2024/03/21 08:03:39;;;;;;;19.60;14.10;;;;;;;2.62;100.00;100961.11;105708;1257;75301;-56
2024/03/21 08:06:07;;;;;;;17.70;13.20;;;;;;;2.76;100.00;100961.99;105648;1256;62312;-55
2024/03/21 08:08:35;;;;;;;16.80;13.40;;;;;;;2.95;100.00;100962.23;105773;1257;61486;-55
2024/03/21 08:11:02;;;;;;;18.80;14.00;;;;;;;3.13;100.00;100960.86;105275;1257;76834;-55
2024/03/21 08:13:30;;;;;;;17.60;13.30;;;;;;;3.28;100.00;100954.95;105683;1253;68481;-55
2024/03/21 08:15:58;;;;;;;17.90;13.00;;;;;;;3.49;100.00;100945.38;105676;1257;74554;-55
2024/03/21 08:18:25;;;;;;;17.80;12.20;;;;;;;3.91;100.00;100940.19;105624;1257;61725;-55
2024/03/21 08:20:53;;;;;;;16.30;12.80;;;;;;;4.55;100.00;100934.81;105334;1256;61470;-55
2024/03/21 08:23:21;;;;;;;20.20;12.00;;;;;;;5.26;100.00;100930.11;105487;1257;76604;-55
2024/03/21 08:25:48;;;;;;;13.90;11.30;;;;;;;5.90;100.00;100922.12;105347;1258;68682;-53
2024/03/21 08:28:16;;;;;;;14.10;11.60;;;;;;;6.28;100.00;100914.42;105484;1254;74213;-56
2024/03/21 08:30:45;;;;;;;15.40;11.80;;;;;;;6.65;100.00;100906.03;105526;1256;61153;-53
2024/03/21 08:33:15;;;;;;;14.10;12.10;;;;;;;7.17;100.00;100905.55;105583;1253;62497;-54
2024/03/21 08:35:44;;;;;;;13.70;10.00;;;;;;;7.77;100.00;100902.38;105727;1253;75983;-55
2024/03/21 08:38:12;;;;;;;13.10;9.80;;;;;;;8.13;100.00;100900.64;105524;1253;69395;-54
2024/03/21 08:40:40;;;;;;;12.60;10.20;;;;;;;8.21;100.00;100895.27;105525;1257;76015;-54
2024/03/21 08:43:07;;;;;;;15.20;10.70;;;;;;;8.24;100.00;100892.77;105616;1258;61009;-55
2024/03/21 08:45:35;;;;;;;12.00;10.10;;;;;;;8.12;100.00;100891.02;105688;1257;61487;-55
2024/03/21 08:48:04;;;;;;;12.20;10.80;;;;;;;7.83;100.00;100890.33;105705;1254;78244;-55
2024/03/21 08:50:32;;;;;;;14.90;10.80;;;;;;;7.46;100.00;100890.27;105622;1256;68472;-54
2024/03/21 08:53:00;;;;;;;13.40;11.20;;;;;;;7.26;100.00;100890.80;105541;1254;73586;-55
2024/03/21 08:55:27;;;;;;;12.80;10.30;;;;;;;7.25;100.00;100890.44;105650;1257;62993;-55
2024/03/21 08:57:55;;;;;;;13.90;10.80;;;;;;;7.33;100.00;100885.85;105672;1257;61453;-55
2024/03/21 09:00:23;;;;;;;13.00;9.90;;;;;;;7.58;100.00;100885.56;105383;1253;75279;-54
2024/03/21 09:02:50;;;;;;;11.80;9.80;;;;;;;7.82;100.00;100884.08;105673;1252;68224;-54
2024/03/21 09:05:18;;;;;;;10.50;8.40;;;;;;;7.90;100.00;100877.36;105654;1257;76155;-54
2024/03/21 09:07:45;;;;;;;14.80;10.10;;;;;;;8.04;97.95;100878.11;105842;1253;60604;-55
2024/03/21 09:10:13;;;;;;;11.90;9.90;;;;;;;8.21;95.47;100880.02;105677;1256;61510;-54
2024/03/21 09:12:42;;;;;;;13.10;9.40;;;;;;;8.41;91.86;100879.45;105650;1253;75097;-54
2024/03/21 09:15:13;;;;;;;11.90;9.10;;;;;;;8.58;88.86;100880.54;105629;1253;67891;-55
2024/03/21 09:17:41;;;;;;;10.90;9.30;;;;;;;8.82;87.11;100875.67;105589;1253;74476;-55
2024/03/21 09:20:09;;;;;;;12.00;9.80;;;;;;;9.00;80.57;100878.86;105504;1255;60842;-55
2024/03/21 09:22:37;;;;;;;11.50;9.20;;;;;;;9.05;79.38;100880.09;105545;1253;63626;-55
2024/03/21 09:25:05;;;;;;;10.70;9.30;;;;;;;9.05;73.86;100872.80;106759;1253;76641;-55
2024/03/21 09:27:32;;;;;;;12.70;9.80;;;;;;;8.99;73.49;100878.38;105665;1255;68145;-55
2024/03/21 09:30:01;;;;;;;10.90;9.10;;;;;;;9.00;71.22;100879.07;105583;1254;73814;-55
2024/03/21 09:32:29;;;;;;;14.60;10.20;;;;;;;8.88;69.72;100873.82;105513;1258;60864;-55
2024/03/21 09:34:57;;;;;;;11.40;8.80;;;;;;;8.74;68.11;100877.34;105653;1253;61667;-54
2024/03/21 09:37:24;;;;;;;12.10;9.70;;;;;;;8.50;70.29;100875.08;105673;1257;76208;-56
2024/03/21 09:39:52;;;;;;;11.80;9.20;;;;;;;8.40;70.12;100873.87;105741;1257;70748;-55
2024/03/21 09:42:20;;;;;;;13.70;9.30;;;;;;;8.19;72.81;100869.56;105605;1257;75174;-56
2024/03/21 09:44:49;;;;;;;13.00;9.50;;;;;;;8.35;76.95;100874.64;105631;1253;61279;-54
2024/03/21 09:47:19;;;;;;;12.20;8.70;;;;;;;8.62;75.18;100870.45;105580;1253;61483;-55
2024/03/21 09:49:47;;;;;;;12.90;9.80;;;;;;;8.63;72.37;100875.41;105899;1253;77476;-55
2024/03/21 09:52:15;;;;;;;13.80;10.20;;;;;;;8.52;72.33;100875.40;105497;1253;69470;-55
2024/03/21 09:54:43;;;;;;;13.80;9.80;;;;;;;8.35;72.93;100876.39;105813;1256;74217;-55
2024/03/21 09:57:12;;;;;;;12.80;9.40;;;;;;;8.17;74.18;100875.75;105668;1257;61338;-55
2024/03/21 09:59:40;;;;;;;12.20;9.10;;;;;;;8.02;76.16;100878.77;105716;1253;63536;-55
2024/03/21 10:02:14;;;;;;;13.50;9.10;;;;;;;7.94;77.87;100878.88;105926;1253;76091;-55
2024/03/21 10:04:46;;;;;;;12.80;9.50;;;;;;;7.93;79.31;100875.86;105738;1253;70316;-55
2024/03/21 10:07:21;;;;;;;12.80;9.40;;;;;;;7.92;79.61;100876.02;105663;1253;74972;-55
2024/03/21 10:09:56;;;;;;;13.00;9.90;;;;;;;7.97;80.78;100873.77;105441;1257;62428;-55
2024/03/21 10:12:25;;;;;;;14.10;10.10;;;;;;;8.16;80.41;100870.88;105500;1257;61871;-55
2024/03/21 10:14:55;;;;;;;13.90;11.70;;;;;;;8.21;77.99;100867.72;105604;1253;77602;-55
2024/03/21 10:17:23;;;;;;;17.20;12.20;;;;;;;8.23;78.05;100874.69;105556;1253;69797;-55
2024/03/21 10:19:51;;;;;;;12.30;10.10;;;;;;;8.20;78.40;100870.15;105672;1257;75765;-55
2024/03/21 10:22:23;;;;;;;14.20;10.40;;;;;;;8.17;78.15;100871.45;105613;1253;62094;-55
2024/03/21 10:24:51;;;;;;;11.80;9.40;;;;;;;8.10;80.44;100867.48;105697;1257;62105;-55
2024/03/21 10:27:20;;;;;;;13.90;10.80;;;;;;;7.92;79.54;100872.98;105904;1257;76860;-56
2024/03/21 10:29:47;;;;;;;12.90;9.70;;;;;;;7.53;81.61;100874.90;105599;1253;69624;-55
2024/03/21 10:32:20;;;;;;;15.90;11.20;;;;;;;7.16;89.08;100881.38;105669;1258;74354;-54
2024/03/21 10:34:50;;;;;;;13.60;10.20;;;;;;;6.85;97.11;100875.17;105599;1253;62202;-54
2024/03/21 10:37:24;;;;;;;14.40;10.30;;;;;;;6.87;100.00;100884.02;105618;1253;62405;-55
2024/03/21 10:39:54;;;;;;;15.30;10.90;;;;;;;6.96;100.00;100879.33;105745;1257;77140;-54
2024/03/21 10:42:27;;;;;;;15.80;11.30;;;;;;;6.85;100.00;100869.30;105677;1254;68801;-54
2024/03/21 10:45:04;;;;;;;16.50;11.20;;;;;;;6.69;100.00;100876.11;105714;1257;74127;-54
2024/03/21 10:47:32;;;;;;;17.10;12.50;;;;;;;6.66;100.00;100874.68;105551;1257;62476;-55
2024/03/21 10:50:00;;;;;;;17.00;12.00;;;;;;;6.66;100.00;100876.80;105590;1253;62944;-54
2024/03/21 10:52:27;;;;;;;17.90;11.60;;;;;;;6.60;100.00;100886.45;105483;1253;77261;-54
2024/03/21 10:54:57;;;;;;;16.20;11.00;;;;;;;6.42;100.00;100882.58;105868;1253;68709;-54
2024/03/21 10:57:25;;;;;;;16.40;11.50;;;;;;;6.19;100.00;100884.41;105464;1253;75986;-54
2024/03/21 10:59:57;;;;;;;16.20;12.10;;;;;;;5.99;100.00;100883.77;105699;1258;61344;-54
2024/03/21 11:02:29;;;;;;;20.80;12.90;;;;;;;5.80;100.00;100884.20;105758;1253;62918;-54
2024/03/21 11:05:14;;;;;;;17.30;11.30;;;;;;;5.56;100.00;100892.02;105965;1252;76585;-56
2024/03/21 11:07:45;;;;;;;18.60;11.80;;;;;;;5.36;100.00;100887.74;105361;1253;68977;-56
2024/03/21 11:10:20;;;;;;;18.30;12.10;;;;;;;5.17;100.00;100895.27;105593;1258;75142;-54
2024/03/21 11:12:49;;;;;;;14.10;10.90;;;;;;;4.93;100.00;100896.23;105499;1257;61223;-55
2024/03/21 11:15:17;;;;;;;20.40;11.50;;;;;;;4.66;100.00;100896.12;105741;1256;62275;-54
2024/03/21 11:17:45;;;;;;;15.30;10.30;;;;;;;4.48;100.00;100896.48;105683;1257;77602;-54
2024/03/21 11:20:14;;;;;;;16.40;10.90;;;;;;;4.38;100.00;100897.61;105713;1257;68907;-55